D/T METAR WX W/SPE G/SPE TEMP DEWP FEEL
31/01/23 12:20 EGNJ 311220Z 28025G35KT 9999 FEW029 10/03 Q1019 28.8mph 40.3mph 10°C 3°C 8.7°C
31/01/23 05:50 EGNJ 310550Z AUTO 23016KT 9999 SCT024/// BKN031/// 07/05 Q1018 18.4mph 7°C 5°C 6.3°C
31/01/23 04:20 EGNJ 310420Z AUTO 23020KT 9999 BKN024/// 07/05 Q1019 23.0mph 7°C 5°C 6.3°C
30/01/23 21:50 EGNJ 302150Z AUTO 22014KT 9999 NCD 06/03 Q1023 16.1mph 6°C 3°C 4.7°C
30/01/23 12:50 EGNJ 301250Z 28014KT 9999 FEW025 10/05 Q1023 16.1mph 10°C 5°C 9.3°C
30/01/23 11:50 EGNJ 301150Z 29016KT 9999 FEW017 10/04 Q1022 18.4mph 10°C 4°C 9.0°C
30/01/23 10:50 EGNJ 301050Z 29014KT 9999 FEW020 09/04 Q1022 16.1mph 9°C 4°C 8.0°C
30/01/23 10:20 EGNJ 301020Z 29016KT CAVOK 08/04 Q1021 18.4mph 8°C 4°C 7.0°C
30/01/23 09:50 EGNJ 300950Z 28014KT CAVOK 08/04 Q1021 16.1mph 8°C 4°C 7.0°C
30/01/23 07:50 EGNJ 300750Z 26010KT CAVOK 06/03 Q1019 11.5mph 6°C 3°C 4.7°C
09/01/23 06:20 EGNJ 090620Z AUTO 20013KT 9999 NCD 04/03 Q0990 15.0mph 4°C 3°C 2.7°C
09/01/23 05:50 EGNJ 090550Z AUTO 20012KT 9999 FEW030/// 04/03 Q0990 13.8mph 4°C 3°C 2.7°C
09/01/23 05:20 EGNJ 090520Z AUTO 20012KT 9999 FEW027/// 03/03 Q0990 13.8mph 3°C 3°C 1.7°C
09/01/23 04:50 EGNJ 090450Z AUTO 21013KT 9999 FEW040/// 04/03 Q0989 15.0mph 4°C 3°C 2.7°C
09/01/23 04:20 EGNJ 090420Z AUTO 21012KT 9999 FEW022/// SCT030/// 03/03 Q0989 13.8mph 3°C 3°C 1.7°C
09/01/23 03:50 EGNJ 090350Z AUTO 21011KT 9999 NCD 04/03 Q0989 12.7mph 4°C 3°C 2.7°C
09/01/23 03:20 EGNJ 090320Z AUTO 21011KT 9999 NCD 04/03 Q0988 12.7mph 4°C 3°C 2.7°C
09/01/23 02:50 EGNJ 090250Z AUTO 21015KT 9999 NCD 04/03 Q0988 17.3mph 4°C 3°C 2.7°C
09/01/23 02:20 EGNJ 090220Z AUTO 21015KT 9999 NCD 04/03 Q0987 17.3mph 4°C 3°C 2.7°C
09/01/23 01:20 EGNJ 090120Z AUTO 19012KT 9999 FEW037/// 04/03 Q0987 13.8mph 4°C 3°C 2.7°C
09/01/23 00:50 EGNJ 090050Z AUTO 19011KT 9999 FEW023/// SCT034/// 04/03 Q0987 12.7mph 4°C 3°C 2.7°C
09/01/23 00:20 EGNJ 090020Z AUTO 20008KT 9999 BKN025/// OVC031/// 04/04 Q0987 9.2mph 4°C 4°C 3.0°C
08/01/23 23:50 EGNJ 082350Z AUTO 19008KT 9999 FEW028/// 04/03 Q0987 9.2mph 4°C 3°C 2.7°C
08/01/23 23:20 EGNJ 082320Z AUTO 20012KT 9999 NCD 04/03 Q0986 13.8mph 4°C 3°C 2.7°C
08/01/23 22:50 EGNJ 082250Z AUTO 20013KT 9999 NCD 04/03 Q0986 15.0mph 4°C 3°C 2.7°C
08/01/23 22:20 EGNJ 082220Z AUTO 20013KT 9999 NCD 05/04 Q0986 15.0mph 5°C 4°C 4.0°C
08/01/23 21:50 EGNJ 082150Z AUTO 20013KT 9999 NCD 05/04 Q0986 15.0mph 5°C 4°C 4.0°C
08/01/23 20:20 EGNJ 082020Z AUTO 19009KT 9999 NCD 05/04 Q0986 10.4mph 5°C 4°C 4.0°C
08/01/23 19:20 EGNJ 081920Z 21009KT 9999 FEW025 05/04 Q0985 10.4mph 5°C 4°C 4.0°C
08/01/23 17:20 EGNJ 081720Z 20010KT 9999 SCT020 06/05 Q0985 11.5mph 6°C 5°C 5.3°C
08/01/23 16:50 EGNJ 081650Z 21009KT 9999 SCT020 07/06 Q0985 10.4mph 7°C 6°C 6.6°C
08/01/23 16:20 EGNJ 081620Z 21013KT 8000 VCSH SCT019 SCT024 BKN030 07/06 Q0985 VCSH 15.0mph 7°C 6°C 6.6°C
08/01/23 15:50 EGNJ 081550Z 22013KT 8000 -SHRA SCT012 BKN024 07/06 Q0985 -SHRA 15.0mph 7°C 6°C 6.6°C
08/01/23 15:20 EGNJ 081520Z 22013KT 9999 VCSH SCT015 BKN025 08/06 Q0985 VCSH 15.0mph 8°C 6°C 7.6°C
08/01/23 14:20 EGNJ 081420Z 21015KT 170V240 9999 SCT014 BKN020 08/07 Q0985 RERA 17.3mph 8°C 7°C 8.0°C
08/01/23 13:50 EGNJ 081350Z 18015KT 7000 -RA SCT019 BKN024 08/07 Q0986 -RA 17.3mph 8°C 7°C 8.0°C
08/01/23 13:20 EGNJ 081320Z 18017KT 9999 SCT016 BKN026 09/07 Q0986 19.6mph 9°C 7°C 9.0°C
08/01/23 12:50 EGNJ 081250Z 18018KT 9999 FEW015 SCT032 08/06 Q0987 20.7mph 8°C 6°C 7.6°C
08/01/23 12:20 EGNJ 081220Z 18017KT 9999 FEW015 08/06 Q0987 19.6mph 8°C 6°C 7.6°C
08/01/23 11:50 EGNJ 081150Z 18017KT 9999 FEW015 08/06 Q0988 19.6mph 8°C 6°C 7.6°C
08/01/23 11:20 EGNJ 081120Z 20016KT 9999 FEW015 08/06 Q0988 18.4mph 8°C 6°C 7.6°C
08/01/23 10:50 EGNJ 081050Z 19017KT 9999 FEW012 SCT030 07/05 Q0989 19.6mph 7°C 5°C 6.3°C
08/01/23 10:20 EGNJ 081020Z 20016KT 9999 FEW015 SCT030 07/06 Q0989 18.4mph 7°C 6°C 6.6°C
08/01/23 09:50 EGNJ 080950Z 20016KT 9999 FEW030 07/06 Q0989 18.4mph 7°C 6°C 6.6°C
08/01/23 09:20 EGNJ 080920Z 19015KT 9999 SCT035 07/05 Q0990 17.3mph 7°C 5°C 6.3°C
08/01/23 08:50 EGNJ 080850Z 20015KT 9999 SCT035 07/06 Q0990 17.3mph 7°C 6°C 6.6°C
08/01/23 07:50 EGNJ 080750Z 19014KT 9999 SCT035 07/06 Q0990 16.1mph 7°C 6°C 6.6°C
08/01/23 07:20 EGNJ 080720Z 19012KT 9999 SCT035 07/06 Q0990 13.8mph 7°C 6°C 6.6°C
08/01/23 06:50 EGNJ 080650Z 19013KT 9999 -RA SCT035 07/06 Q0990 -RA 15.0mph 7°C 6°C 6.6°C
08/01/23 06:20 EGNJ 080620Z 20015KT 9999 -RA FEW030 07/06 Q0990 -RA 17.3mph 7°C 6°C 6.6°C
08/01/23 05:50 EGNJ 080550Z 20016KT 9999 FEW030 07/05 Q0990 18.4mph 7°C 5°C 6.3°C
08/01/23 05:20 EGNJ 080520Z AUTO 20016KT 9999 NCD 07/06 Q0990 18.4mph 7°C 6°C 6.6°C
08/01/23 04:50 EGNJ 080450Z AUTO 20016KT 9999 FEW029/// 07/06 Q0990 18.4mph 7°C 6°C 6.6°C
08/01/23 04:20 EGNJ 080420Z AUTO 20016KT 9999 SCT029/// 08/06 Q0990 18.4mph 8°C 6°C 7.6°C
08/01/23 03:50 EGNJ 080350Z AUTO 20018KT 9999 NCD 08/06 Q0990 20.7mph 8°C 6°C 7.6°C
08/01/23 03:20 EGNJ 080320Z AUTO 20020KT 9999 NCD 08/06 Q0990 23.0mph 8°C 6°C 7.6°C
08/01/23 02:50 EGNJ 080250Z AUTO 21021KT 9999 NCD 08/06 Q0990 24.2mph 8°C 6°C 7.6°C
08/01/23 02:20 EGNJ 080220Z AUTO 21023KT 9999 NCD 08/06 Q0990 26.5mph 8°C 6°C 7.6°C
08/01/23 01:50 EGNJ 080150Z AUTO 21019KT 9999 NCD 08/06 Q0990 21.9mph 8°C 6°C 7.6°C
08/01/23 01:20 EGNJ 080120Z AUTO 21020KT 9999 NCD 07/05 Q0990 23.0mph 7°C 5°C 6.3°C
08/01/23 00:20 EGNJ 080020Z AUTO 20019KT 9999 BKN035/// 07/06 Q0991 21.9mph 7°C 6°C 6.6°C
07/01/23 23:50 EGNJ 072350Z AUTO 20021KT 9999 NCD 07/05 Q0991 24.2mph 7°C 5°C 6.3°C
07/01/23 23:20 EGNJ 072320Z AUTO 20020KT 9999 NCD 07/05 Q0991 23.0mph 7°C 5°C 6.3°C
07/01/23 22:50 EGNJ 072250Z AUTO 20020KT 9999 FEW032/// 07/05 Q0991 23.0mph 7°C 5°C 6.3°C
07/01/23 22:20 EGNJ 072220Z AUTO 20018KT 9999 NCD 07/05 Q0991 20.7mph 7°C 5°C 6.3°C
07/01/23 21:50 EGNJ 072150Z AUTO 20018KT 9999 NCD 07/06 Q0991 20.7mph 7°C 6°C 6.6°C
07/01/23 21:20 EGNJ 072120Z AUTO 20015KT 9999 SCT042/// 08/06 Q0991 17.3mph 8°C 6°C 7.6°C
07/01/23 20:50 EGNJ 072050Z 21019KT 9999 FEW018 08/06 Q0991 21.9mph 8°C 6°C 7.6°C
07/01/23 20:20 EGNJ 072020Z AUTO 21017KT 9999 NCD 08/07 Q0991 19.6mph 8°C 7°C 8.0°C
07/01/23 19:50 EGNJ 071950Z 21020KT 9999 VCSH FEW015 SCT033 08/08 Q0990 VCSH 23.0mph 8°C 8°C 8.4°C
07/01/23 19:20 EGNJ 071920Z 21016KT 9999 FEW015 SCT022 08/08 Q0990 18.4mph 8°C 8°C 8.4°C
07/01/23 18:50 EGNJ 071850Z 21019G29KT 9999 -SHRA SCT017 BKN029 09/08 Q0990 RESHRA -SHRA 21.9mph 33.4mph 9°C 8°C 9.4°C
07/01/23 18:20 EGNJ 071820Z 19017KT 9999 -SHRA FEW018 BKN028 10/09 Q0990 -SHRA 19.6mph 10°C 9°C 10.8°C
07/01/23 17:20 EGNJ 071720Z 18011KT 9999 FEW015 10/08 Q0990 12.7mph 10°C 8°C 10.4°C
07/01/23 16:50 EGNJ 071650Z 19014KT 9999 FEW012 10/08 Q0991 16.1mph 10°C 8°C 10.4°C
07/01/23 16:20 EGNJ 071620Z 19017KT 9999 FEW012 10/08 Q0991 19.6mph 10°C 8°C 10.4°C
07/01/23 15:50 EGNJ 071550Z 19017KT 9999 FEW012 FEW025CB 10/08 Q0991 19.6mph 10°C 8°C 10.4°C
07/01/23 15:20 EGNJ 071520Z 19018KT 9999 VCSH FEW010 SCT026 11/09 Q0991 VCSH 20.7mph 11°C 9°C 11.8°C
07/01/23 14:50 EGNJ 071450Z 18019KT 9999 -RA FEW010 SCT024 11/10 Q0991 -RA 21.9mph 11°C 10°C 12.3°C
07/01/23 14:20 EGNJ 071420Z 19017KT 9999 FEW010 SCT020 11/10 Q0991 19.6mph 11°C 10°C 12.3°C
07/01/23 13:50 EGNJ 071350Z 20017KT 9999 FEW010 SCT018 12/10 Q0992 19.6mph 12°C 10°C 13.3°C
07/01/23 12:50 EGNJ 071250Z 18023KT 9999 -RA SCT008 SCT037 11/10 Q0992 -RA 26.5mph 11°C 10°C 12.3°C
07/01/23 12:20 EGNJ 071220Z 18022KT 9000 -RA SCT008 BKN027 11/10 Q0993 -RA 25.3mph 11°C 10°C 12.3°C
07/01/23 11:50 EGNJ 071150Z 18023KT 7000 -RA SCT007 BKN016 11/10 Q0993 RERA -RA 26.5mph 11°C 10°C 12.3°C
07/01/23 11:20 EGNJ 071120Z 17026G37KT 3000 RA SCT008 BKN012 10/10 Q0993 RA 29.9mph 42.6mph 10°C 10°C 11.3°C
07/01/23 10:50 EGNJ 071050Z 17024G35KT 7000 -RA SCT010 BKN014 10/10 Q0994 -RA 27.6mph 40.3mph 10°C 10°C 11.3°C
07/01/23 10:20 EGNJ 071020Z 17024KT 9000 -RA SCT011 BKN016 10/09 Q0994 -RA 27.6mph 10°C 9°C 10.8°C
07/01/23 09:50 EGNJ 070950Z 18025G35KT 9000 -RA SCT012 BKN016 11/09 Q0995 -RA 28.8mph 40.3mph 11°C 9°C 11.8°C
07/01/23 09:20 EGNJ 070920Z 18025KT 9000 -RA FEW012 BKN016 11/10 Q0995 -RA 28.8mph 11°C 10°C 12.3°C
07/01/23 08:50 EGNJ 070850Z 17025KT 9999 -RA FEW015 SCT025 BKN030 11/09 Q0995 -RA 28.8mph 11°C 9°C 11.8°C
07/01/23 08:20 EGNJ 070820Z 18024KT 9999 -RA FEW015 SCT025 BKN030 11/10 Q0996 -RA 27.6mph 11°C 10°C 12.3°C
07/01/23 07:20 EGNJ 070720Z AUTO 18020KT 9999 -RA SCT022/// BKN027/// 12/10 Q0997 -RA 23.0mph 12°C 10°C 13.3°C
07/01/23 06:50 EGNJ 070650Z AUTO 18021KT 9999 -RA SCT022/// BKN029/// BKN038/// 12/10 Q0997 -RA 24.2mph 12°C 10°C 13.3°C
07/01/23 06:20 EGNJ 070620Z AUTO 19025KT 9999 -RA FEW024/// BKN033/// OVC040/// 13/10 Q0998 -RA 28.8mph 13°C 10°C 14.3°C
07/01/23 05:50 EGNJ 070550Z AUTO 19022KT 9999 BKN033/// 13/10 Q0998 25.3mph 13°C 10°C 14.3°C
07/01/23 05:20 EGNJ 070520Z AUTO 19025KT 9999 -RA SCT028/// BKN033/// 13/10 Q0998 -RA 28.8mph 13°C 10°C 14.3°C